sensor_id;sensor_type;location;lat;lon;timestamp;temperature;humidity
12700;DHT22;6414;49.570;6.060;2023-02-23T00:00:44;8.60;99.90
12700;DHT22;6414;49.570;6.060;2023-02-23T00:03:30;8.60;99.90
12700;DHT22;6414;49.570;6.060;2023-02-23T00:06:17;8.60;99.90
12700;DHT22;6414;49.570;6.060;2023-02-23T00:09:02;8.60;99.90
12700;DHT22;6414;49.570;6.060;2023-02-23T00:11:52;8.60;99.90
12700;DHT22;6414;49.570;6.060;2023-02-23T00:14:37;8.60;99.90
12700;DHT22;6414;49.570;6.060;2023-02-23T00:17:22;8.70;99.90
12700;DHT22;6414;49.570;6.060;2023-02-23T00:20:09;8.70;99.90
12700;DHT22;6414;49.570;6.060;2023-02-23T00:22:53;8.60;99.90
12700;DHT22;6414;49.570;6.060;2023-02-23T00:25:37;8.60;99.90
12700;DHT22;6414;49.570;6.060;2023-02-23T00:28:23;8.60;99.90
12700;DHT22;6414;49.570;6.060;2023-02-23T00:31:09;8.60;99.90
12700;DHT22;6414;49.570;6.060;2023-02-23T00:33:55;8.60;99.90
12700;DHT22;6414;49.570;6.060;2023-02-23T00:36:40;8.60;99.90
12700;DHT22;6414;49.570;6.060;2023-02-23T00:39:24;8.60;99.90
12700;DHT22;6414;49.570;6.060;2023-02-23T00:42:10;8.60;99.90
12700;DHT22;6414;49.570;6.060;2023-02-23T00:44:55;8.60;99.90
12700;DHT22;6414;49.570;6.060;2023-02-23T00:47:41;8.60;99.90
12700;DHT22;6414;49.570;6.060;2023-02-23T00:50:29;8.70;99.90
12700;DHT22;6414;49.570;6.060;2023-02-23T00:53:15;8.70;99.90
12700;DHT22;6414;49.570;6.060;2023-02-23T00:56:05;8.60;99.90
12700;DHT22;6414;49.570;6.060;2023-02-23T00:58:50;8.60;99.90
12700;DHT22;6414;49.570;6.060;2023-02-23T01:01:35;8.60;99.90
12700;DHT22;6414;49.570;6.060;2023-02-23T01:04:21;8.50;99.90
12700;DHT22;6414;49.570;6.060;2023-02-23T01:07:09;8.60;99.90
12700;DHT22;6414;49.570;6.060;2023-02-23T01:09:54;8.60;99.90
12700;DHT22;6414;49.570;6.060;2023-02-23T01:12:40;8.60;99.90
12700;DHT22;6414;49.570;6.060;2023-02-23T01:15:25;8.60;99.90
12700;DHT22;6414;49.570;6.060;2023-02-23T01:18:11;8.60;99.90
12700;DHT22;6414;49.570;6.060;2023-02-23T01:20:56;8.50;99.90
12700;DHT22;6414;49.570;6.060;2023-02-23T01:23:42;8.50;99.90
12700;DHT22;6414;49.570;6.060;2023-02-23T01:26:32;8.50;99.90
12700;DHT22;6414;49.570;6.060;2023-02-23T01:29:17;8.40;99.90
12700;DHT22;6414;49.570;6.060;2023-02-23T01:32:02;8.40;99.90
12700;DHT22;6414;49.570;6.060;2023-02-23T01:34:48;8.40;99.90
12700;DHT22;6414;49.570;6.060;2023-02-23T01:37:37;8.30;99.90
12700;DHT22;6414;49.570;6.060;2023-02-23T01:40:23;8.30;99.90
12700;DHT22;6414;49.570;6.060;2023-02-23T01:43:15;8.30;99.90
12700;DHT22;6414;49.570;6.060;2023-02-23T01:46:00;8.30;99.90
12700;DHT22;6414;49.570;6.060;2023-02-23T01:48:45;8.30;99.90
12700;DHT22;6414;49.570;6.060;2023-02-23T01:51:31;8.30;99.90
12700;DHT22;6414;49.570;6.060;2023-02-23T01:54:29;8.20;99.90
12700;DHT22;6414;49.570;6.060;2023-02-23T01:57:05;8.20;99.90
12700;DHT22;6414;49.570;6.060;2023-02-23T01:59:50;8.20;99.90
12700;DHT22;6414;49.570;6.060;2023-02-23T02:02:36;8.20;99.90
12700;DHT22;6414;49.570;6.060;2023-02-23T02:05:21;8.20;99.90
12700;DHT22;6414;49.570;6.060;2023-02-23T02:08:08;8.10;99.90
12700;DHT22;6414;49.570;6.060;2023-02-23T02:10:53;8.10;99.90
12700;DHT22;6414;49.570;6.060;2023-02-23T02:13:39;8.10;99.90
12700;DHT22;6414;49.570;6.060;2023-02-23T02:25:49;8.00;99.90
12700;DHT22;6414;49.570;6.060;2023-02-23T02:31:56;8.10;99.90
12700;DHT22;6414;49.570;6.060;2023-02-23T02:34:56;8.10;99.90
12700;DHT22;6414;49.570;6.060;2023-02-23T02:37:50;8.10;99.90
12700;DHT22;6414;49.570;6.060;2023-02-23T02:40:44;8.10;99.90
12700;DHT22;6414;49.570;6.060;2023-02-23T02:43:40;8.10;99.90
12700;DHT22;6414;49.570;6.060;2023-02-23T02:46:34;8.10;99.90
12700;DHT22;6414;49.570;6.060;2023-02-23T02:52:15;8.00;99.90
12700;DHT22;6414;49.570;6.060;2023-02-23T02:55:13;8.00;99.90
12700;DHT22;6414;49.570;6.060;2023-02-23T02:57:55;7.90;99.90
12700;DHT22;6414;49.570;6.060;2023-02-23T03:00:41;7.90;99.90
12700;DHT22;6414;49.570;6.060;2023-02-23T03:03:42;7.90;99.90
12700;DHT22;6414;49.570;6.060;2023-02-23T03:06:56;7.90;99.90
12700;DHT22;6414;49.570;6.060;2023-02-23T03:10:05;7.90;99.90
12700;DHT22;6414;49.570;6.060;2023-02-23T03:20:02;7.50;99.90
12700;DHT22;6414;49.570;6.060;2023-02-23T03:26:17;7.70;99.90
12700;DHT22;6414;49.570;6.060;2023-02-23T03:32:49;7.80;99.90
12700;DHT22;6414;49.570;6.060;2023-02-23T03:38:35;7.80;99.90
12700;DHT22;6414;49.570;6.060;2023-02-23T03:41:37;7.90;99.90
12700;DHT22;6414;49.570;6.060;2023-02-23T03:44:41;7.80;99.90
12700;DHT22;6414;49.570;6.060;2023-02-23T03:47:43;7.80;99.90
12700;DHT22;6414;49.570;6.060;2023-02-23T03:50:50;7.80;99.90
12700;DHT22;6414;49.570;6.060;2023-02-23T03:53:50;7.90;99.90
12700;DHT22;6414;49.570;6.060;2023-02-23T03:56:54;7.90;99.90
12700;DHT22;6414;49.570;6.060;2023-02-23T03:59:57;7.90;99.90
12700;DHT22;6414;49.570;6.060;2023-02-23T04:03:00;7.80;99.90
12700;DHT22;6414;49.570;6.060;2023-02-23T04:06:04;7.80;99.90
12700;DHT22;6414;49.570;6.060;2023-02-23T04:09:07;7.70;99.90
12700;DHT22;6414;49.570;6.060;2023-02-23T04:12:12;7.80;99.90
12700;DHT22;6414;49.570;6.060;2023-02-23T04:15:24;7.80;99.90
12700;DHT22;6414;49.570;6.060;2023-02-23T04:18:05;7.80;99.90
12700;DHT22;6414;49.570;6.060;2023-02-23T04:20:50;7.80;99.90
12700;DHT22;6414;49.570;6.060;2023-02-23T04:23:36;7.80;99.90
12700;DHT22;6414;49.570;6.060;2023-02-23T04:26:21;7.70;99.90
12700;DHT22;6414;49.570;6.060;2023-02-23T04:29:07;7.80;99.90
12700;DHT22;6414;49.570;6.060;2023-02-23T04:31:53;7.80;99.90
12700;DHT22;6414;49.570;6.060;2023-02-23T04:34:39;7.80;99.90
12700;DHT22;6414;49.570;6.060;2023-02-23T04:37:24;7.70;99.90
12700;DHT22;6414;49.570;6.060;2023-02-23T04:40:10;7.70;99.90
12700;DHT22;6414;49.570;6.060;2023-02-23T04:42:55;7.60;99.90
12700;DHT22;6414;49.570;6.060;2023-02-23T04:45:41;7.70;99.90
12700;DHT22;6414;49.570;6.060;2023-02-23T04:48:27;7.70;99.90
12700;DHT22;6414;49.570;6.060;2023-02-23T04:51:12;7.80;99.90
12700;DHT22;6414;49.570;6.060;2023-02-23T04:53:58;7.80;99.90
12700;DHT22;6414;49.570;6.060;2023-02-23T04:56:43;7.80;99.90
12700;DHT22;6414;49.570;6.060;2023-02-23T04:59:29;7.80;99.90
12700;DHT22;6414;49.570;6.060;2023-02-23T05:02:16;7.80;99.90
12700;DHT22;6414;49.570;6.060;2023-02-23T05:05:01;7.80;99.90
12700;DHT22;6414;49.570;6.060;2023-02-23T05:07:47;7.80;99.90
12700;DHT22;6414;49.570;6.060;2023-02-23T05:10:33;7.80;99.90
12700;DHT22;6414;49.570;6.060;2023-02-23T05:13:19;7.80;99.90
12700;DHT22;6414;49.570;6.060;2023-02-23T05:16:05;7.80;99.90
12700;DHT22;6414;49.570;6.060;2023-02-23T05:18:50;7.70;99.90
12700;DHT22;6414;49.570;6.060;2023-02-23T05:21:35;7.70;99.90
12700;DHT22;6414;49.570;6.060;2023-02-23T05:24:22;7.60;99.90
12700;DHT22;6414;49.570;6.060;2023-02-23T05:27:09;7.60;99.90
12700;DHT22;6414;49.570;6.060;2023-02-23T05:29:54;7.70;99.90
12700;DHT22;6414;49.570;6.060;2023-02-23T05:32:40;7.60;99.90
12700;DHT22;6414;49.570;6.060;2023-02-23T05:35:25;7.60;99.90
12700;DHT22;6414;49.570;6.060;2023-02-23T05:38:11;7.70;99.90
12700;DHT22;6414;49.570;6.060;2023-02-23T05:40:57;7.70;99.90
12700;DHT22;6414;49.570;6.060;2023-02-23T05:43:43;7.70;99.90
12700;DHT22;6414;49.570;6.060;2023-02-23T05:46:28;7.70;99.90
12700;DHT22;6414;49.570;6.060;2023-02-23T05:49:14;7.80;99.90
12700;DHT22;6414;49.570;6.060;2023-02-23T05:51:59;7.80;99.90
12700;DHT22;6414;49.570;6.060;2023-02-23T05:54:45;7.70;99.90
12700;DHT22;6414;49.570;6.060;2023-02-23T05:57:30;7.70;99.90
12700;DHT22;6414;49.570;6.060;2023-02-23T06:00:16;7.60;99.90
12700;DHT22;6414;49.570;6.060;2023-02-23T06:03:02;7.60;99.90
12700;DHT22;6414;49.570;6.060;2023-02-23T06:05:54;7.50;99.90
12700;DHT22;6414;49.570;6.060;2023-02-23T06:08:39;7.50;99.90
12700;DHT22;6414;49.570;6.060;2023-02-23T06:11:25;7.50;99.90
12700;DHT22;6414;49.570;6.060;2023-02-23T06:14:11;7.50;99.90
12700;DHT22;6414;49.570;6.060;2023-02-23T06:16:57;7.50;99.90
12700;DHT22;6414;49.570;6.060;2023-02-23T06:19:43;7.50;99.90
12700;DHT22;6414;49.570;6.060;2023-02-23T06:22:28;7.50;99.90
12700;DHT22;6414;49.570;6.060;2023-02-23T06:25:14;7.50;99.90
12700;DHT22;6414;49.570;6.060;2023-02-23T06:27:59;7.50;99.90
12700;DHT22;6414;49.570;6.060;2023-02-23T06:30:46;7.50;99.90
12700;DHT22;6414;49.570;6.060;2023-02-23T06:33:31;7.50;99.90
12700;DHT22;6414;49.570;6.060;2023-02-23T06:36:17;7.40;99.90
12700;DHT22;6414;49.570;6.060;2023-02-23T06:39:03;7.40;99.90
12700;DHT22;6414;49.570;6.060;2023-02-23T06:41:48;7.50;99.90
12700;DHT22;6414;49.570;6.060;2023-02-23T06:44:34;7.50;99.90
12700;DHT22;6414;49.570;6.060;2023-02-23T06:47:20;7.50;99.90
12700;DHT22;6414;49.570;6.060;2023-02-23T06:50:08;7.50;99.90
12700;DHT22;6414;49.570;6.060;2023-02-23T06:52:53;7.50;99.90
12700;DHT22;6414;49.570;6.060;2023-02-23T06:55:39;7.60;99.90
12700;DHT22;6414;49.570;6.060;2023-02-23T06:58:24;7.60;99.90
12700;DHT22;6414;49.570;6.060;2023-02-23T07:01:10;7.70;99.90
12700;DHT22;6414;49.570;6.060;2023-02-23T07:03:56;7.70;99.90
12700;DHT22;6414;49.570;6.060;2023-02-23T07:06:42;7.70;99.90
12700;DHT22;6414;49.570;6.060;2023-02-23T07:09:28;7.70;99.90
12700;DHT22;6414;49.570;6.060;2023-02-23T07:12:15;7.70;99.90
12700;DHT22;6414;49.570;6.060;2023-02-23T07:15:00;7.70;99.90
12700;DHT22;6414;49.570;6.060;2023-02-23T07:17:47;7.70;99.90
12700;DHT22;6414;49.570;6.060;2023-02-23T07:20:32;7.70;99.90
12700;DHT22;6414;49.570;6.060;2023-02-23T07:23:18;7.70;99.90
12700;DHT22;6414;49.570;6.060;2023-02-23T07:26:03;7.80;99.90
12700;DHT22;6414;49.570;6.060;2023-02-23T07:28:49;7.80;99.90
12700;DHT22;6414;49.570;6.060;2023-02-23T07:31:34;7.90;99.90
12700;DHT22;6414;49.570;6.060;2023-02-23T07:34:20;7.90;99.90
12700;DHT22;6414;49.570;6.060;2023-02-23T07:37:06;8.00;99.90
12700;DHT22;6414;49.570;6.060;2023-02-23T07:39:52;8.00;99.90
12700;DHT22;6414;49.570;6.060;2023-02-23T07:42:37;8.00;99.90
12700;DHT22;6414;49.570;6.060;2023-02-23T07:45:23;7.90;99.90
12700;DHT22;6414;49.570;6.060;2023-02-23T07:48:08;8.00;99.90
12700;DHT22;6414;49.570;6.060;2023-02-23T07:50:54;8.10;99.90
12700;DHT22;6414;49.570;6.060;2023-02-23T07:53:40;8.00;99.90
12700;DHT22;6414;49.570;6.060;2023-02-23T07:56:26;8.10;99.90
12700;DHT22;6414;49.570;6.060;2023-02-23T07:59:11;8.20;99.90
12700;DHT22;6414;49.570;6.060;2023-02-23T08:01:56;8.20;99.90
12700;DHT22;6414;49.570;6.060;2023-02-23T08:04:43;8.10;99.90
12700;DHT22;6414;49.570;6.060;2023-02-23T08:07:30;8.00;99.90
12700;DHT22;6414;49.570;6.060;2023-02-23T08:12:33;8.10;99.90
12700;DHT22;6414;49.570;6.060;2023-02-23T08:15:20;8.10;99.90
12700;DHT22;6414;49.570;6.060;2023-02-23T08:18:05;8.10;99.90
12700;DHT22;6414;49.570;6.060;2023-02-23T08:20:56;8.10;99.90
12700;DHT22;6414;49.570;6.060;2023-02-23T08:23:37;8.20;99.90
12700;DHT22;6414;49.570;6.060;2023-02-23T08:26:22;8.20;99.90
12700;DHT22;6414;49.570;6.060;2023-02-23T08:29:08;8.40;99.90
12700;DHT22;6414;49.570;6.060;2023-02-23T08:31:54;8.40;99.90
12700;DHT22;6414;49.570;6.060;2023-02-23T08:34:40;8.30;99.90
12700;DHT22;6414;49.570;6.060;2023-02-23T08:37:26;8.30;99.90
12700;DHT22;6414;49.570;6.060;2023-02-23T08:40:11;8.40;99.90
12700;DHT22;6414;49.570;6.060;2023-02-23T08:42:56;8.50;99.90
12700;DHT22;6414;49.570;6.060;2023-02-23T08:45:42;8.50;99.90
12700;DHT22;6414;49.570;6.060;2023-02-23T08:48:28;8.50;99.90
12700;DHT22;6414;49.570;6.060;2023-02-23T08:51:15;8.40;99.90
12700;DHT22;6414;49.570;6.060;2023-02-23T08:53:59;8.50;99.90
12700;DHT22;6414;49.570;6.060;2023-02-23T08:56:45;8.40;99.90
12700;DHT22;6414;49.570;6.060;2023-02-23T08:59:30;8.40;99.90
12700;DHT22;6414;49.570;6.060;2023-02-23T09:02:15;8.20;99.90
12700;DHT22;6414;49.570;6.060;2023-02-23T09:05:01;8.30;99.90
12700;DHT22;6414;49.570;6.060;2023-02-23T09:07:47;8.30;99.90
12700;DHT22;6414;49.570;6.060;2023-02-23T09:10:33;8.20;99.90
12700;DHT22;6414;49.570;6.060;2023-02-23T09:13:18;8.20;99.90
12700;DHT22;6414;49.570;6.060;2023-02-23T09:16:04;8.40;99.90
12700;DHT22;6414;49.570;6.060;2023-02-23T09:18:50;8.40;99.90
12700;DHT22;6414;49.570;6.060;2023-02-23T09:21:36;8.40;99.90
12700;DHT22;6414;49.570;6.060;2023-02-23T09:24:22;8.30;99.90
12700;DHT22;6414;49.570;6.060;2023-02-23T09:27:08;8.30;99.90
12700;DHT22;6414;49.570;6.060;2023-02-23T09:29:54;8.30;99.90
12700;DHT22;6414;49.570;6.060;2023-02-23T09:32:39;8.20;99.90
12700;DHT22;6414;49.570;6.060;2023-02-23T09:35:24;8.20;99.90
12700;DHT22;6414;49.570;6.060;2023-02-23T09:38:10;8.40;99.90
12700;DHT22;6414;49.570;6.060;2023-02-23T09:40:55;8.40;99.90
12700;DHT22;6414;49.570;6.060;2023-02-23T09:43:43;8.40;99.90
12700;DHT22;6414;49.570;6.060;2023-02-23T09:47:32;8.40;99.90
12700;DHT22;6414;49.570;6.060;2023-02-23T09:49:31;8.40;99.90
12700;DHT22;6414;49.570;6.060;2023-02-23T09:52:17;8.60;99.90
12700;DHT22;6414;49.570;6.060;2023-02-23T09:55:01;8.70;99.90
12700;DHT22;6414;49.570;6.060;2023-02-23T09:57:46;8.60;99.90
12700;DHT22;6414;49.570;6.060;2023-02-23T10:00:33;8.50;99.90
12700;DHT22;6414;49.570;6.060;2023-02-23T10:03:28;8.60;99.90
12700;DHT22;6414;49.570;6.060;2023-02-23T10:06:12;8.70;99.90
12700;DHT22;6414;49.570;6.060;2023-02-23T10:09:03;8.70;99.90
12700;DHT22;6414;49.570;6.060;2023-02-23T10:11:52;8.60;99.90
12700;DHT22;6414;49.570;6.060;2023-02-23T10:20:53;8.60;99.90
12700;DHT22;6414;49.570;6.060;2023-02-23T10:23:53;8.70;99.90
12700;DHT22;6414;49.570;6.060;2023-02-23T10:26:39;8.70;99.90
12700;DHT22;6414;49.570;6.060;2023-02-23T10:35:16;8.50;99.90
12700;DHT22;6414;49.570;6.060;2023-02-23T10:38:00;8.40;99.90
12700;DHT22;6414;49.570;6.060;2023-02-23T10:40:49;8.40;99.90
12700;DHT22;6414;49.570;6.060;2023-02-23T10:43:31;8.50;99.90
12700;DHT22;6414;49.570;6.060;2023-02-23T10:46:18;8.50;99.90
12700;DHT22;6414;49.570;6.060;2023-02-23T10:49:03;8.50;99.90
12700;DHT22;6414;49.570;6.060;2023-02-23T10:51:48;8.70;99.90
12700;DHT22;6414;49.570;6.060;2023-02-23T10:54:34;8.80;99.90
12700;DHT22;6414;49.570;6.060;2023-02-23T10:57:23;8.80;99.90
12700;DHT22;6414;49.570;6.060;2023-02-23T11:03:01;8.80;99.90
12700;DHT22;6414;49.570;6.060;2023-02-23T11:05:47;8.90;99.90
12700;DHT22;6414;49.570;6.060;2023-02-23T11:08:33;8.90;99.90
12700;DHT22;6414;49.570;6.060;2023-02-23T11:11:21;9.00;99.90
12700;DHT22;6414;49.570;6.060;2023-02-23T11:14:03;9.10;99.90
12700;DHT22;6414;49.570;6.060;2023-02-23T11:16:49;9.00;99.90
12700;DHT22;6414;49.570;6.060;2023-02-23T11:19:35;9.10;99.90
12700;DHT22;6414;49.570;6.060;2023-02-23T11:22:19;9.20;99.90
12700;DHT22;6414;49.570;6.060;2023-02-23T11:25:12;9.30;99.90
12700;DHT22;6414;49.570;6.060;2023-02-23T11:27:51;9.10;99.90
12700;DHT22;6414;49.570;6.060;2023-02-23T11:30:36;9.20;99.90
12700;DHT22;6414;49.570;6.060;2023-02-23T11:33:23;9.20;99.90
12700;DHT22;6414;49.570;6.060;2023-02-23T11:36:16;9.10;99.90
12700;DHT22;6414;49.570;6.060;2023-02-23T11:39:13;9.10;99.90
12700;DHT22;6414;49.570;6.060;2023-02-23T11:42:15;9.20;99.90
12700;DHT22;6414;49.570;6.060;2023-02-23T11:45:03;9.30;99.90
12700;DHT22;6414;49.570;6.060;2023-02-23T11:47:51;9.20;99.90
12700;DHT22;6414;49.570;6.060;2023-02-23T11:50:35;9.40;99.90
12700;DHT22;6414;49.570;6.060;2023-02-23T11:53:30;9.70;99.90
12700;DHT22;6414;49.570;6.060;2023-02-23T11:56:18;9.70;99.90
12700;DHT22;6414;49.570;6.060;2023-02-23T11:59:03;9.90;99.90
12700;DHT22;6414;49.570;6.060;2023-02-23T12:01:50;9.90;99.90
12700;DHT22;6414;49.570;6.060;2023-02-23T12:04:36;10.10;99.90
12700;DHT22;6414;49.570;6.060;2023-02-23T12:07:42;10.00;99.90
12700;DHT22;6414;49.570;6.060;2023-02-23T12:10:38;10.10;99.90
12700;DHT22;6414;49.570;6.060;2023-02-23T12:13:21;10.10;99.90
12700;DHT22;6414;49.570;6.060;2023-02-23T12:19:11;10.00;99.90
12700;DHT22;6414;49.570;6.060;2023-02-23T12:21:43;10.00;99.90
12700;DHT22;6414;49.570;6.060;2023-02-23T12:24:41;10.00;99.90
12700;DHT22;6414;49.570;6.060;2023-02-23T12:27:25;10.00;99.90
12700;DHT22;6414;49.570;6.060;2023-02-23T12:33:30;10.10;99.90
12700;DHT22;6414;49.570;6.060;2023-02-23T12:42:15;9.80;99.90
12700;DHT22;6414;49.570;6.060;2023-02-23T12:45:00;10.00;99.90
12700;DHT22;6414;49.570;6.060;2023-02-23T12:48:14;10.10;99.90
12700;DHT22;6414;49.570;6.060;2023-02-23T12:50:58;10.20;99.90
12700;DHT22;6414;49.570;6.060;2023-02-23T12:53:43;10.20;99.90
12700;DHT22;6414;49.570;6.060;2023-02-23T13:02:51;10.20;99.90
12700;DHT22;6414;49.570;6.060;2023-02-23T13:05:34;10.20;99.90
12700;DHT22;6414;49.570;6.060;2023-02-23T13:14:37;10.00;99.90
12700;DHT22;6414;49.570;6.060;2023-02-23T13:17:14;9.90;99.90
12700;DHT22;6414;49.570;6.060;2023-02-23T13:20:05;9.90;99.90
12700;DHT22;6414;49.570;6.060;2023-02-23T13:22:53;9.80;99.90
12700;DHT22;6414;49.570;6.060;2023-02-23T13:25:50;9.80;99.90
12700;DHT22;6414;49.570;6.060;2023-02-23T13:31:37;10.20;99.90
12700;DHT22;6414;49.570;6.060;2023-02-23T13:37:07;10.30;99.90
12700;DHT22;6414;49.570;6.060;2023-02-23T13:43:00;10.40;99.90
12700;DHT22;6414;49.570;6.060;2023-02-23T13:49:21;10.30;99.90
12700;DHT22;6414;49.570;6.060;2023-02-23T13:58:18;10.10;99.90
12700;DHT22;6414;49.570;6.060;2023-02-23T14:01:10;10.10;99.90
12700;DHT22;6414;49.570;6.060;2023-02-23T14:03:56;10.00;99.90
12700;DHT22;6414;49.570;6.060;2023-02-23T14:06:48;10.00;99.90
12700;DHT22;6414;49.570;6.060;2023-02-23T14:09:29;10.10;99.90
12700;DHT22;6414;49.570;6.060;2023-02-23T14:12:32;10.10;99.90
12700;DHT22;6414;49.570;6.060;2023-02-23T14:21:29;10.00;99.90
12700;DHT22;6414;49.570;6.060;2023-02-23T14:24:17;10.00;99.90
12700;DHT22;6414;49.570;6.060;2023-02-23T14:32:59;10.10;99.90
12700;DHT22;6414;49.570;6.060;2023-02-23T14:35:41;10.10;99.90
12700;DHT22;6414;49.570;6.060;2023-02-23T14:38:29;10.10;99.90
12700;DHT22;6414;49.570;6.060;2023-02-23T14:41:14;10.10;99.90
12700;DHT22;6414;49.570;6.060;2023-02-23T14:43:59;10.20;99.90
12700;DHT22;6414;49.570;6.060;2023-02-23T14:47:05;10.00;99.90
12700;DHT22;6414;49.570;6.060;2023-02-23T14:49:52;10.10;99.90
12700;DHT22;6414;49.570;6.060;2023-02-23T14:52:35;10.10;99.90
12700;DHT22;6414;49.570;6.060;2023-02-23T14:55:24;10.10;99.90
12700;DHT22;6414;49.570;6.060;2023-02-23T14:58:21;10.10;99.90
12700;DHT22;6414;49.570;6.060;2023-02-23T15:01:05;10.00;99.90
12700;DHT22;6414;49.570;6.060;2023-02-23T15:04:07;10.10;99.90
12700;DHT22;6414;49.570;6.060;2023-02-23T15:07:00;10.10;99.90
12700;DHT22;6414;49.570;6.060;2023-02-23T15:09:42;10.10;99.90
12700;DHT22;6414;49.570;6.060;2023-02-23T15:12:29;10.20;99.90
12700;DHT22;6414;49.570;6.060;2023-02-23T15:15:18;10.20;99.90
12700;DHT22;6414;49.570;6.060;2023-02-23T15:18:00;10.20;99.90
12700;DHT22;6414;49.570;6.060;2023-02-23T15:20:46;10.20;99.90
12700;DHT22;6414;49.570;6.060;2023-02-23T15:23:33;10.20;99.90
12700;DHT22;6414;49.570;6.060;2023-02-23T15:29:09;10.00;99.90
12700;DHT22;6414;49.570;6.060;2023-02-23T15:31:53;9.90;99.90
12700;DHT22;6414;49.570;6.060;2023-02-23T15:34:38;9.80;99.90
12700;DHT22;6414;49.570;6.060;2023-02-23T15:37:35;9.70;99.90
12700;DHT22;6414;49.570;6.060;2023-02-23T15:40:19;9.80;99.90
12700;DHT22;6414;49.570;6.060;2023-02-23T15:43:03;9.70;99.90
12700;DHT22;6414;49.570;6.060;2023-02-23T15:45:48;9.70;99.90
12700;DHT22;6414;49.570;6.060;2023-02-23T15:48:40;9.70;99.90
12700;DHT22;6414;49.570;6.060;2023-02-23T15:51:39;9.60;99.90
12700;DHT22;6414;49.570;6.060;2023-02-23T15:54:23;9.60;99.90
12700;DHT22;6414;49.570;6.060;2023-02-23T15:57:06;9.60;99.90
12700;DHT22;6414;49.570;6.060;2023-02-23T15:59:52;9.70;99.90
12700;DHT22;6414;49.570;6.060;2023-02-23T16:02:43;9.60;99.90
12700;DHT22;6414;49.570;6.060;2023-02-23T16:05:23;9.50;99.90
12700;DHT22;6414;49.570;6.060;2023-02-23T16:08:23;9.50;99.90
12700;DHT22;6414;49.570;6.060;2023-02-23T16:11:13;9.50;99.90
12700;DHT22;6414;49.570;6.060;2023-02-23T16:13:58;9.50;99.90
12700;DHT22;6414;49.570;6.060;2023-02-23T16:16:44;9.50;99.90
12700;DHT22;6414;49.570;6.060;2023-02-23T16:19:30;9.30;99.90
12700;DHT22;6414;49.570;6.060;2023-02-23T16:22:19;9.30;99.90
12700;DHT22;6414;49.570;6.060;2023-02-23T16:25:02;9.30;99.90
12700;DHT22;6414;49.570;6.060;2023-02-23T16:27:46;9.30;99.90
12700;DHT22;6414;49.570;6.060;2023-02-23T16:36:19;9.20;99.90
12700;DHT22;6414;49.570;6.060;2023-02-23T16:39:05;9.10;99.90
12700;DHT22;6414;49.570;6.060;2023-02-23T16:41:48;9.10;99.90
12700;DHT22;6414;49.570;6.060;2023-02-23T16:44:33;9.00;99.90
12700;DHT22;6414;49.570;6.060;2023-02-23T16:50:14;9.00;99.90
12700;DHT22;6414;49.570;6.060;2023-02-23T16:52:58;8.90;99.90
12700;DHT22;6414;49.570;6.060;2023-02-23T16:55:51;8.90;99.90
12700;DHT22;6414;49.570;6.060;2023-02-23T16:58:35;8.80;99.90
12700;DHT22;6414;49.570;6.060;2023-02-23T17:01:21;8.70;99.90
12700;DHT22;6414;49.570;6.060;2023-02-23T17:04:13;8.70;99.90
12700;DHT22;6414;49.570;6.060;2023-02-23T17:06:57;8.70;99.90
12700;DHT22;6414;49.570;6.060;2023-02-23T17:09:42;8.60;99.90
12700;DHT22;6414;49.570;6.060;2023-02-23T17:12:28;8.60;99.90
12700;DHT22;6414;49.570;6.060;2023-02-23T17:15:13;8.60;99.90
12700;DHT22;6414;49.570;6.060;2023-02-23T17:17:58;8.60;99.90
12700;DHT22;6414;49.570;6.060;2023-02-23T17:20:44;8.60;99.90
12700;DHT22;6414;49.570;6.060;2023-02-23T17:23:31;8.60;99.90
12700;DHT22;6414;49.570;6.060;2023-02-23T17:26:21;8.60;99.90
12700;DHT22;6414;49.570;6.060;2023-02-23T17:29:02;8.50;99.90
12700;DHT22;6414;49.570;6.060;2023-02-23T17:31:47;8.50;99.90
12700;DHT22;6414;49.570;6.060;2023-02-23T17:34:32;8.50;99.90
12700;DHT22;6414;49.570;6.060;2023-02-23T17:37:18;8.50;99.90
12700;DHT22;6414;49.570;6.060;2023-02-23T17:40:08;8.40;99.90
12700;DHT22;6414;49.570;6.060;2023-02-23T17:42:54;8.40;99.90
12700;DHT22;6414;49.570;6.060;2023-02-23T17:45:39;8.40;99.90
12700;DHT22;6414;49.570;6.060;2023-02-23T17:48:24;8.50;99.90
12700;DHT22;6414;49.570;6.060;2023-02-23T17:51:10;8.40;99.90
12700;DHT22;6414;49.570;6.060;2023-02-23T17:53:56;8.30;99.90
12700;DHT22;6414;49.570;6.060;2023-02-23T17:56:41;8.40;99.90
12700;DHT22;6414;49.570;6.060;2023-02-23T17:59:27;8.40;99.90
12700;DHT22;6414;49.570;6.060;2023-02-23T18:02:13;8.40;99.90
12700;DHT22;6414;49.570;6.060;2023-02-23T18:04:58;8.30;99.90
12700;DHT22;6414;49.570;6.060;2023-02-23T18:07:44;8.30;99.90
12700;DHT22;6414;49.570;6.060;2023-02-23T18:10:30;8.30;99.90
12700;DHT22;6414;49.570;6.060;2023-02-23T18:13:15;8.30;99.90
12700;DHT22;6414;49.570;6.060;2023-02-23T18:16:05;8.20;99.90
12700;DHT22;6414;49.570;6.060;2023-02-23T18:18:46;8.20;99.90
12700;DHT22;6414;49.570;6.060;2023-02-23T18:21:31;8.20;99.90
12700;DHT22;6414;49.570;6.060;2023-02-23T18:24:16;8.20;99.90
12700;DHT22;6414;49.570;6.060;2023-02-23T18:27:01;8.10;99.90
12700;DHT22;6414;49.570;6.060;2023-02-23T18:29:46;8.20;99.90
12700;DHT22;6414;49.570;6.060;2023-02-23T18:32:32;8.10;99.90
12700;DHT22;6414;49.570;6.060;2023-02-23T18:35:17;8.10;99.90
12700;DHT22;6414;49.570;6.060;2023-02-23T18:38:04;8.10;99.90
12700;DHT22;6414;49.570;6.060;2023-02-23T18:40:48;8.10;99.90
12700;DHT22;6414;49.570;6.060;2023-02-23T18:43:33;8.10;99.90
12700;DHT22;6414;49.570;6.060;2023-02-23T18:46:18;8.10;99.90
12700;DHT22;6414;49.570;6.060;2023-02-23T18:49:05;8.00;99.90
12700;DHT22;6414;49.570;6.060;2023-02-23T18:51:52;8.10;99.90
12700;DHT22;6414;49.570;6.060;2023-02-23T18:54:38;8.10;99.90
12700;DHT22;6414;49.570;6.060;2023-02-23T18:57:23;8.10;99.90
12700;DHT22;6414;49.570;6.060;2023-02-23T19:00:10;8.10;99.90
12700;DHT22;6414;49.570;6.060;2023-02-23T19:02:54;8.10;99.90
12700;DHT22;6414;49.570;6.060;2023-02-23T19:05:43;8.10;99.90
12700;DHT22;6414;49.570;6.060;2023-02-23T19:08:28;8.20;99.90
12700;DHT22;6414;49.570;6.060;2023-02-23T19:11:14;8.10;99.90
12700;DHT22;6414;49.570;6.060;2023-02-23T19:14:00;8.10;99.90
12700;DHT22;6414;49.570;6.060;2023-02-23T19:16:44;8.00;99.90
12700;DHT22;6414;49.570;6.060;2023-02-23T19:19:29;8.00;99.90
12700;DHT22;6414;49.570;6.060;2023-02-23T19:22:15;8.00;99.90
12700;DHT22;6414;49.570;6.060;2023-02-23T19:25:01;7.80;99.90
12700;DHT22;6414;49.570;6.060;2023-02-23T19:27:46;7.70;99.90
12700;DHT22;6414;49.570;6.060;2023-02-23T19:30:32;7.70;99.90
12700;DHT22;6414;49.570;6.060;2023-02-23T19:33:17;7.70;99.90
12700;DHT22;6414;49.570;6.060;2023-02-23T19:36:07;7.80;99.90
12700;DHT22;6414;49.570;6.060;2023-02-23T19:38:48;7.70;99.90
12700;DHT22;6414;49.570;6.060;2023-02-23T19:41:34;7.70;99.90
12700;DHT22;6414;49.570;6.060;2023-02-23T19:44:19;7.60;99.90
12700;DHT22;6414;49.570;6.060;2023-02-23T19:48:21;7.60;99.90
12700;DHT22;6414;49.570;6.060;2023-02-23T19:51:11;7.50;99.90
12700;DHT22;6414;49.570;6.060;2023-02-23T19:53:56;7.50;99.90
12700;DHT22;6414;49.570;6.060;2023-02-23T19:56:41;7.40;99.90
12700;DHT22;6414;49.570;6.060;2023-02-23T19:59:26;7.40;99.90
12700;DHT22;6414;49.570;6.060;2023-02-23T20:02:12;7.40;99.90
12700;DHT22;6414;49.570;6.060;2023-02-23T20:04:57;7.40;99.90
12700;DHT22;6414;49.570;6.060;2023-02-23T20:07:42;7.40;99.90